sensor_id;sensor_type;location;lat;lon;timestamp;pressure;altitude;pressure_sealevel;temperature;humidity
54808;BME280;40708;50.364;7.550;2023-02-28T00:00:06;101669.56;;;2.15;100.00
54808;BME280;40708;50.364;7.550;2023-02-28T00:02:40;101676.38;;;2.12;100.00
54808;BME280;40708;50.364;7.550;2023-02-28T00:05:07;101675.16;;;2.05;100.00
54808;BME280;40708;50.364;7.550;2023-02-28T00:07:33;101668.66;;;1.99;100.00
54808;BME280;40708;50.364;7.550;2023-02-28T00:09:59;101672.53;;;1.89;100.00
54808;BME280;40708;50.364;7.550;2023-02-28T00:12:25;101672.19;;;1.83;100.00
54808;BME280;40708;50.364;7.550;2023-02-28T00:14:51;101672.75;;;1.77;100.00
54808;BME280;40708;50.364;7.550;2023-02-28T00:17:16;101667.16;;;1.71;100.00
54808;BME280;40708;50.364;7.550;2023-02-28T00:19:46;101667.59;;;1.63;100.00
54808;BME280;40708;50.364;7.550;2023-02-28T00:22:11;101666.56;;;1.61;100.00
54808;BME280;40708;50.364;7.550;2023-02-28T00:24:36;101666.16;;;1.53;100.00
54808;BME280;40708;50.364;7.550;2023-02-28T00:27:02;101668.53;;;1.49;100.00
54808;BME280;40708;50.364;7.550;2023-02-28T00:29:27;101669.88;;;1.42;100.00
54808;BME280;40708;50.364;7.550;2023-02-28T00:31:52;101662.53;;;1.35;100.00
54808;BME280;40708;50.364;7.550;2023-02-28T00:34:18;101672.88;;;1.34;100.00
54808;BME280;40708;50.364;7.550;2023-02-28T00:36:43;101673.59;;;1.31;100.00
54808;BME280;40708;50.364;7.550;2023-02-28T00:39:11;101675.19;;;1.28;100.00
54808;BME280;40708;50.364;7.550;2023-02-28T00:41:36;101684.38;;;1.21;100.00
54808;BME280;40708;50.364;7.550;2023-02-28T00:44:01;101687.72;;;1.18;100.00
54808;BME280;40708;50.364;7.550;2023-02-28T00:46:27;101690.94;;;1.14;100.00
54808;BME280;40708;50.364;7.550;2023-02-28T00:48:52;101687.09;;;1.08;100.00
54808;BME280;40708;50.364;7.550;2023-02-28T00:51:17;101687.00;;;1.06;100.00
54808;BME280;40708;50.364;7.550;2023-02-28T00:53:42;101686.72;;;1.02;100.00
54808;BME280;40708;50.364;7.550;2023-02-28T00:56:08;101690.88;;;0.98;100.00
54808;BME280;40708;50.364;7.550;2023-02-28T00:58:33;101689.88;;;0.96;100.00
54808;BME280;40708;50.364;7.550;2023-02-28T01:00:58;101696.03;;;0.97;100.00
54808;BME280;40708;50.364;7.550;2023-02-28T01:03:24;101698.38;;;0.92;100.00
54808;BME280;40708;50.364;7.550;2023-02-28T01:05:49;101686.91;;;0.90;100.00
54808;BME280;40708;50.364;7.550;2023-02-28T01:08:14;101698.00;;;0.86;100.00
54808;BME280;40708;50.364;7.550;2023-02-28T01:10:40;101696.31;;;0.87;100.00
54808;BME280;40708;50.364;7.550;2023-02-28T01:13:05;101689.28;;;0.86;100.00
54808;BME280;40708;50.364;7.550;2023-02-28T01:15:31;101684.75;;;0.83;100.00
54808;BME280;40708;50.364;7.550;2023-02-28T01:17:57;101693.13;;;0.78;100.00
54808;BME280;40708;50.364;7.550;2023-02-28T01:20:22;101691.50;;;0.80;100.00
54808;BME280;40708;50.364;7.550;2023-02-28T01:22:48;101681.91;;;0.79;100.00
54808;BME280;40708;50.364;7.550;2023-02-28T01:25:13;101689.25;;;0.71;100.00
54808;BME280;40708;50.364;7.550;2023-02-28T01:27:38;101697.72;;;0.67;100.00
54808;BME280;40708;50.364;7.550;2023-02-28T01:30:05;101689.34;;;0.58;100.00
54808;BME280;40708;50.364;7.550;2023-02-28T01:32:31;101697.72;;;0.52;100.00
54808;BME280;40708;50.364;7.550;2023-02-28T01:34:56;101694.03;;;0.49;100.00
54808;BME280;40708;50.364;7.550;2023-02-28T01:37:21;101684.91;;;0.42;100.00
54808;BME280;40708;50.364;7.550;2023-02-28T01:39:47;101699.28;;;0.36;100.00
54808;BME280;40708;50.364;7.550;2023-02-28T01:42:12;101691.00;;;0.28;100.00
54808;BME280;40708;50.364;7.550;2023-02-28T01:45:04;101703.66;;;0.22;100.00
54808;BME280;40708;50.364;7.550;2023-02-28T01:47:34;101694.47;;;0.14;100.00
54808;BME280;40708;50.364;7.550;2023-02-28T01:50:04;101696.81;;;0.10;100.00
54808;BME280;40708;50.364;7.550;2023-02-28T01:52:31;101696.22;;;0.00;100.00
54808;BME280;40708;50.364;7.550;2023-02-28T01:54:59;101701.16;;;-0.04;100.00
54808;BME280;40708;50.364;7.550;2023-02-28T01:57:30;101697.38;;;-0.09;100.00
54808;BME280;40708;50.364;7.550;2023-02-28T02:00:05;101697.78;;;-0.16;100.00
54808;BME280;40708;50.364;7.550;2023-02-28T02:02:32;101693.28;;;-0.19;100.00
54808;BME280;40708;50.364;7.550;2023-02-28T02:07:36;101695.31;;;-0.28;100.00
54808;BME280;40708;50.364;7.550;2023-02-28T02:12:47;101685.72;;;-0.42;100.00
54808;BME280;40708;50.364;7.550;2023-02-28T02:15:26;101688.31;;;-0.42;100.00
54808;BME280;40708;50.364;7.550;2023-02-28T02:17:57;101685.63;;;-0.56;100.00
54808;BME280;40708;50.364;7.550;2023-02-28T02:20:38;101679.72;;;-0.67;100.00
54808;BME280;40708;50.364;7.550;2023-02-28T02:23:26;101682.25;;;-0.69;100.00
54808;BME280;40708;50.364;7.550;2023-02-28T02:31:38;101681.94;;;-0.60;100.00
54808;BME280;40708;50.364;7.550;2023-02-28T02:37:02;101680.09;;;-0.48;100.00
54808;BME280;40708;50.364;7.550;2023-02-28T02:39:38;101679.19;;;-0.48;100.00
54808;BME280;40708;50.364;7.550;2023-02-28T02:42:15;101674.91;;;-0.48;100.00
54808;BME280;40708;50.364;7.550;2023-02-28T02:44:51;101683.66;;;-0.61;100.00
54808;BME280;40708;50.364;7.550;2023-02-28T02:47:24;101666.81;;;-0.66;100.00
54808;BME280;40708;50.364;7.550;2023-02-28T02:49:52;101678.34;;;-0.75;100.00
54808;BME280;40708;50.364;7.550;2023-02-28T02:52:23;101685.75;;;-0.81;100.00
54808;BME280;40708;50.364;7.550;2023-02-28T02:54:52;101685.25;;;-0.89;100.00
54808;BME280;40708;50.364;7.550;2023-02-28T02:57:26;101687.38;;;-0.96;100.00
54808;BME280;40708;50.364;7.550;2023-02-28T02:59:55;101694.97;;;-0.99;100.00
54808;BME280;40708;50.364;7.550;2023-02-28T03:02:21;101693.97;;;-1.01;100.00
54808;BME280;40708;50.364;7.550;2023-02-28T03:05:00;101701.59;;;-1.04;100.00
54808;BME280;40708;50.364;7.550;2023-02-28T03:07:27;101701.38;;;-1.07;100.00
54808;BME280;40708;50.364;7.550;2023-02-28T03:09:54;101708.00;;;-1.12;100.00
54808;BME280;40708;50.364;7.550;2023-02-28T03:12:20;101699.97;;;-1.15;100.00
54808;BME280;40708;50.364;7.550;2023-02-28T03:17:50;101684.34;;;-1.02;100.00
54808;BME280;40708;50.364;7.550;2023-02-28T03:23:48;101682.66;;;-0.89;100.00
54808;BME280;40708;50.364;7.550;2023-02-28T03:26:11;101684.56;;;-0.86;100.00
54808;BME280;40708;50.364;7.550;2023-02-28T03:31:39;101680.34;;;-0.84;100.00
54808;BME280;40708;50.364;7.550;2023-02-28T03:34:12;101682.16;;;-0.83;100.00
54808;BME280;40708;50.364;7.550;2023-02-28T03:36:44;101682.84;;;-0.86;100.00
54808;BME280;40708;50.364;7.550;2023-02-28T03:42:01;101685.75;;;-0.94;100.00
54808;BME280;40708;50.364;7.550;2023-02-28T03:44:34;101692.28;;;-1.01;100.00
54808;BME280;40708;50.364;7.550;2023-02-28T03:47:13;101687.16;;;-0.99;100.00
54808;BME280;40708;50.364;7.550;2023-02-28T03:50:05;101687.16;;;-0.99;100.00
54808;BME280;40708;50.364;7.550;2023-02-28T03:52:34;101698.69;;;-1.09;100.00
54808;BME280;40708;50.364;7.550;2023-02-28T03:55:04;101692.16;;;-1.15;100.00
54808;BME280;40708;50.364;7.550;2023-02-28T03:57:41;101686.38;;;-1.11;100.00
54808;BME280;40708;50.364;7.550;2023-02-28T04:00:13;101690.53;;;-1.13;100.00
54808;BME280;40708;50.364;7.550;2023-02-28T04:02:40;101693.75;;;-1.17;100.00
54808;BME280;40708;50.364;7.550;2023-02-28T04:05:07;101697.66;;;-1.24;100.00
54808;BME280;40708;50.364;7.550;2023-02-28T04:07:32;101701.44;;;-1.32;100.00
54808;BME280;40708;50.364;7.550;2023-02-28T04:09:58;101703.03;;;-1.34;100.00
54808;BME280;40708;50.364;7.550;2023-02-28T04:12:24;101695.31;;;-1.33;100.00
54808;BME280;40708;50.364;7.550;2023-02-28T04:14:49;101694.59;;;-1.43;100.00
54808;BME280;40708;50.364;7.550;2023-02-28T04:17:15;101698.03;;;-1.44;100.00
54808;BME280;40708;50.364;7.550;2023-02-28T04:19:41;101687.41;;;-1.47;100.00
54808;BME280;40708;50.364;7.550;2023-02-28T04:22:08;101694.88;;;-1.52;100.00
54808;BME280;40708;50.364;7.550;2023-02-28T04:24:33;101695.91;;;-1.50;100.00
54808;BME280;40708;50.364;7.550;2023-02-28T04:26:59;101696.00;;;-1.48;100.00
54808;BME280;40708;50.364;7.550;2023-02-28T04:29:28;101694.19;;;-1.49;100.00
54808;BME280;40708;50.364;7.550;2023-02-28T04:31:54;101691.28;;;-1.54;100.00
54808;BME280;40708;50.364;7.550;2023-02-28T04:34:22;101695.56;;;-1.54;100.00
54808;BME280;40708;50.364;7.550;2023-02-28T04:36:48;101697.25;;;-1.55;100.00
54808;BME280;40708;50.364;7.550;2023-02-28T04:39:16;101696.31;;;-1.68;100.00
54808;BME280;40708;50.364;7.550;2023-02-28T04:41:43;101701.66;;;-1.67;100.00
54808;BME280;40708;50.364;7.550;2023-02-28T04:44:08;101705.16;;;-1.66;100.00
54808;BME280;40708;50.364;7.550;2023-02-28T04:46:33;101705.16;;;-1.66;100.00
54808;BME280;40708;50.364;7.550;2023-02-28T04:48:59;101702.66;;;-1.65;100.00
54808;BME280;40708;50.364;7.550;2023-02-28T04:51:24;101695.84;;;-1.63;100.00
54808;BME280;40708;50.364;7.550;2023-02-28T04:53:49;101700.25;;;-1.62;100.00
54808;BME280;40708;50.364;7.550;2023-02-28T04:56:16;101702.28;;;-1.58;100.00
54808;BME280;40708;50.364;7.550;2023-02-28T04:58:42;101703.56;;;-1.64;100.00
54808;BME280;40708;50.364;7.550;2023-02-28T05:01:28;101706.94;;;-1.65;100.00
54808;BME280;40708;50.364;7.550;2023-02-28T05:03:56;101705.66;;;-1.72;100.00
54808;BME280;40708;50.364;7.550;2023-02-28T05:06:24;101708.03;;;-1.75;100.00
54808;BME280;40708;50.364;7.550;2023-02-28T05:08:49;101712.59;;;-1.84;100.00
54808;BME280;40708;50.364;7.550;2023-02-28T05:11:22;101710.44;;;-1.90;100.00
54808;BME280;40708;50.364;7.550;2023-02-28T05:13:49;101714.34;;;-1.96;100.00
54808;BME280;40708;50.364;7.550;2023-02-28T05:16:14;101709.03;;;-1.98;100.00
54808;BME280;40708;50.364;7.550;2023-02-28T05:18:40;101714.47;;;-2.06;100.00
54808;BME280;40708;50.364;7.550;2023-02-28T05:21:06;101717.34;;;-2.15;100.00
54808;BME280;40708;50.364;7.550;2023-02-28T05:23:42;101726.66;;;-2.30;100.00
54808;BME280;40708;50.364;7.550;2023-02-28T05:26:07;101725.09;;;-2.39;100.00
54808;BME280;40708;50.364;7.550;2023-02-28T05:28:33;101725.66;;;-2.44;100.00
54808;BME280;40708;50.364;7.550;2023-02-28T05:30:58;101735.81;;;-2.47;100.00
54808;BME280;40708;50.364;7.550;2023-02-28T05:33:24;101727.13;;;-2.47;100.00
54808;BME280;40708;50.364;7.550;2023-02-28T05:35:49;101728.25;;;-2.44;100.00
54808;BME280;40708;50.364;7.550;2023-02-28T05:38:14;101727.56;;;-2.41;100.00
54808;BME280;40708;50.364;7.550;2023-02-28T05:40:39;101734.22;;;-2.45;100.00
54808;BME280;40708;50.364;7.550;2023-02-28T05:43:05;101733.13;;;-2.48;100.00
54808;BME280;40708;50.364;7.550;2023-02-28T05:45:30;101730.16;;;-2.53;100.00
54808;BME280;40708;50.364;7.550;2023-02-28T05:47:56;101731.53;;;-2.58;100.00
54808;BME280;40708;50.364;7.550;2023-02-28T05:50:21;101737.09;;;-2.65;100.00
54808;BME280;40708;50.364;7.550;2023-02-28T05:52:50;101738.31;;;-2.60;100.00
54808;BME280;40708;50.364;7.550;2023-02-28T05:55:16;101735.03;;;-2.57;100.00
54808;BME280;40708;50.364;7.550;2023-02-28T05:57:41;101740.78;;;-2.50;100.00
54808;BME280;40708;50.364;7.550;2023-02-28T06:00:08;101741.84;;;-2.59;100.00
54808;BME280;40708;50.364;7.550;2023-02-28T06:02:33;101742.75;;;-2.59;100.00
54808;BME280;40708;50.364;7.550;2023-02-28T06:04:58;101744.75;;;-2.55;100.00
54808;BME280;40708;50.364;7.550;2023-02-28T06:07:24;101741.25;;;-2.55;100.00
54808;BME280;40708;50.364;7.550;2023-02-28T06:09:49;101735.50;;;-2.51;100.00
54808;BME280;40708;50.364;7.550;2023-02-28T06:12:14;101737.97;;;-2.53;100.00
54808;BME280;40708;50.364;7.550;2023-02-28T06:14:39;101740.78;;;-2.50;100.00
54808;BME280;40708;50.364;7.550;2023-02-28T06:17:06;101738.78;;;-2.42;100.00
54808;BME280;40708;50.364;7.550;2023-02-28T06:19:31;101746.13;;;-2.36;100.00
54808;BME280;40708;50.364;7.550;2023-02-28T06:21:57;101750.16;;;-2.28;100.00
54808;BME280;40708;50.364;7.550;2023-02-28T06:24:24;101739.88;;;-2.38;100.00
54808;BME280;40708;50.364;7.550;2023-02-28T06:26:50;101744.53;;;-2.34;100.00
54808;BME280;40708;50.364;7.550;2023-02-28T06:29:15;101740.56;;;-2.41;100.00
54808;BME280;40708;50.364;7.550;2023-02-28T06:31:45;101750.50;;;-2.47;100.00
54808;BME280;40708;50.364;7.550;2023-02-28T06:34:11;101748.59;;;-2.50;100.00
54808;BME280;40708;50.364;7.550;2023-02-28T06:36:38;101752.66;;;-2.42;100.00
54808;BME280;40708;50.364;7.550;2023-02-28T06:39:03;101749.59;;;-2.36;100.00
54808;BME280;40708;50.364;7.550;2023-02-28T06:41:28;101750.56;;;-2.22;100.00
54808;BME280;40708;50.364;7.550;2023-02-28T06:43:54;101759.28;;;-2.10;100.00
54808;BME280;40708;50.364;7.550;2023-02-28T06:46:20;101751.06;;;-1.92;100.00
54808;BME280;40708;50.364;7.550;2023-02-28T06:48:45;101757.25;;;-1.78;100.00
54808;BME280;40708;50.364;7.550;2023-02-28T06:51:17;101757.63;;;-1.60;100.00
54808;BME280;40708;50.364;7.550;2023-02-28T06:53:45;101755.88;;;-1.48;100.00
54808;BME280;40708;50.364;7.550;2023-02-28T06:56:13;101761.94;;;-1.36;100.00
54808;BME280;40708;50.364;7.550;2023-02-28T06:58:39;101761.69;;;-1.14;100.00
54808;BME280;40708;50.364;7.550;2023-02-28T07:01:06;101760.50;;;-0.93;100.00
54808;BME280;40708;50.364;7.550;2023-02-28T07:03:31;101765.53;;;-0.83;100.00
54808;BME280;40708;50.364;7.550;2023-02-28T07:05:57;101754.59;;;-0.78;100.00
54808;BME280;40708;50.364;7.550;2023-02-28T07:08:23;101760.53;;;-0.80;100.00
54808;BME280;40708;50.364;7.550;2023-02-28T07:10:52;101760.81;;;-0.76;100.00
54808;BME280;40708;50.364;7.550;2023-02-28T07:13:18;101757.13;;;-0.66;100.00
54808;BME280;40708;50.364;7.550;2023-02-28T07:15:43;101767.63;;;-0.65;100.00
54808;BME280;40708;50.364;7.550;2023-02-28T07:18:08;101761.03;;;-0.60;100.00
54808;BME280;40708;50.364;7.550;2023-02-28T07:20:34;101764.44;;;-0.47;100.00
54808;BME280;40708;50.364;7.550;2023-02-28T07:22:59;101764.53;;;-0.20;100.00
54808;BME280;40708;50.364;7.550;2023-02-28T07:25:28;101760.38;;;-0.03;100.00
54808;BME280;40708;50.364;7.550;2023-02-28T07:27:54;101766.16;;;0.06;100.00
54808;BME280;40708;50.364;7.550;2023-02-28T07:30:20;101759.91;;;0.45;100.00
54808;BME280;40708;50.364;7.550;2023-02-28T07:32:45;101762.50;;;0.73;100.00
54808;BME280;40708;50.364;7.550;2023-02-28T07:35:11;101764.50;;;0.91;100.00
54808;BME280;40708;50.364;7.550;2023-02-28T07:37:36;101758.59;;;0.66;100.00
54808;BME280;40708;50.364;7.550;2023-02-28T07:40:04;101758.72;;;0.82;100.00
54808;BME280;40708;50.364;7.550;2023-02-28T07:42:34;101756.75;;;0.78;100.00
54808;BME280;40708;50.364;7.550;2023-02-28T07:44:59;101762.50;;;0.87;100.00
54808;BME280;40708;50.364;7.550;2023-02-28T07:47:25;101759.72;;;0.99;100.00
54808;BME280;40708;50.364;7.550;2023-02-28T07:49:50;101758.47;;;1.22;100.00
54808;BME280;40708;50.364;7.550;2023-02-28T07:52:15;101755.50;;;1.30;100.00
54808;BME280;40708;50.364;7.550;2023-02-28T07:54:40;101753.13;;;1.35;100.00
54808;BME280;40708;50.364;7.550;2023-02-28T07:57:06;101749.06;;;1.40;100.00
54808;BME280;40708;50.364;7.550;2023-02-28T07:59:31;101749.22;;;1.57;100.00
54808;BME280;40708;50.364;7.550;2023-02-28T08:01:57;101742.63;;;1.64;100.00
54808;BME280;40708;50.364;7.550;2023-02-28T08:04:23;101737.47;;;2.12;100.00
54808;BME280;40708;50.364;7.550;2023-02-28T08:06:48;101732.59;;;2.51;100.00
54808;BME280;40708;50.364;7.550;2023-02-28T08:09:16;101731.81;;;2.69;100.00
54808;BME280;40708;50.364;7.550;2023-02-28T08:11:42;101728.31;;;2.69;100.00
54808;BME280;40708;50.364;7.550;2023-02-28T08:14:07;101724.63;;;2.99;100.00
54808;BME280;40708;50.364;7.550;2023-02-28T08:16:32;101724.75;;;3.18;100.00
54808;BME280;40708;50.364;7.550;2023-02-28T08:18:58;101714.94;;;3.67;100.00
54808;BME280;40708;50.364;7.550;2023-02-28T08:21:23;101710.56;;;3.85;100.00
54808;BME280;40708;50.364;7.550;2023-02-28T08:23:50;101718.03;;;4.13;100.00
54808;BME280;40708;50.364;7.550;2023-02-28T08:26:16;101715.31;;;4.31;100.00
54808;BME280;40708;50.364;7.550;2023-02-28T08:28:41;101711.50;;;4.43;100.00
54808;BME280;40708;50.364;7.550;2023-02-28T08:31:08;101720.31;;;4.44;100.00
54808;BME280;40708;50.364;7.550;2023-02-28T08:33:34;101712.59;;;3.91;100.00
54808;BME280;40708;50.364;7.550;2023-02-28T08:36:00;101709.63;;;4.02;100.00
54808;BME280;40708;50.364;7.550;2023-02-28T08:38:25;101710.53;;;4.03;100.00
54808;BME280;40708;50.364;7.550;2023-02-28T08:40:57;101712.81;;;4.14;100.00
54808;BME280;40708;50.364;7.550;2023-02-28T08:43:23;101707.72;;;4.17;100.00
54808;BME280;40708;50.364;7.550;2023-02-28T08:45:51;101699.00;;;4.18;100.00
54808;BME280;40708;50.364;7.550;2023-02-28T08:48:16;101706.25;;;4.24;100.00
54808;BME280;40708;50.364;7.550;2023-02-28T08:50:42;101706.38;;;4.08;100.00
54808;BME280;40708;50.364;7.550;2023-02-28T08:53:07;101706.88;;;3.99;100.00
54808;BME280;40708;50.364;7.550;2023-02-28T08:55:32;101720.72;;;3.78;100.00
54808;BME280;40708;50.364;7.550;2023-02-28T08:57:57;101709.97;;;3.73;100.00
54808;BME280;40708;50.364;7.550;2023-02-28T09:00:23;101701.28;;;3.56;100.00
54808;BME280;40708;50.364;7.550;2023-02-28T09:02:48;101698.66;;;4.11;100.00
54808;BME280;40708;50.364;7.550;2023-02-28T09:05:13;101708.78;;;4.21;100.00
54808;BME280;40708;50.364;7.550;2023-02-28T09:07:39;101705.28;;;4.22;100.00
54808;BME280;40708;50.364;7.550;2023-02-28T09:10:04;101706.88;;;4.38;100.00
54808;BME280;40708;50.364;7.550;2023-02-28T09:12:33;101704.41;;;4.41;100.00
54808;BME280;40708;50.364;7.550;2023-02-28T09:14:58;101693.50;;;4.51;100.00
54808;BME280;40708;50.364;7.550;2023-02-28T09:17:23;101693.53;;;4.33;100.00
54808;BME280;40708;50.364;7.550;2023-02-28T09:19:49;101707.56;;;4.14;100.00
54808;BME280;40708;50.364;7.550;2023-02-28T09:22:14;101704.97;;;3.97;100.00
54808;BME280;40708;50.364;7.550;2023-02-28T09:24:39;101684.38;;;4.24;99.77
54808;BME280;40708;50.364;7.550;2023-02-28T09:27:05;101690.78;;;4.49;94.57
54808;BME280;40708;50.364;7.550;2023-02-28T09:29:31;101688.88;;;4.66;92.55
54808;BME280;40708;50.364;7.550;2023-02-28T09:31:56;101684.75;;;4.52;89.26
54808;BME280;40708;50.364;7.550;2023-02-28T09:34:23;101697.91;;;4.33;90.03
54808;BME280;40708;50.364;7.550;2023-02-28T09:36:49;101685.03;;;4.58;93.21
54808;BME280;40708;50.364;7.550;2023-02-28T09:39:15;101692.72;;;4.53;88.84
54808;BME280;40708;50.364;7.550;2023-02-28T09:41:43;101691.38;;;4.63;90.68
54808;BME280;40708;50.364;7.550;2023-02-28T09:44:44;101695.41;;;4.36;91.26
54808;BME280;40708;50.364;7.550;2023-02-28T09:47:25;101693.56;;;4.73;91.29
54808;BME280;40708;50.364;7.550;2023-02-28T09:49:52;101691.47;;;4.64;92.52
54808;BME280;40708;50.364;7.550;2023-02-28T09:52:21;101687.16;;;4.66;91.95
54808;BME280;40708;50.364;7.550;2023-02-28T09:54:49;101684.13;;;4.97;89.01
54808;BME280;40708;50.364;7.550;2023-02-28T09:57:37;101675.47;;;5.20;82.25
54808;BME280;40708;50.364;7.550;2023-02-28T10:05:20;101671.03;;;5.19;84.65
54808;BME280;40708;50.364;7.550;2023-02-28T10:10:56;101678.09;;;5.00;80.07
54808;BME280;40708;50.364;7.550;2023-02-28T10:16:05;101697.50;;;4.24;85.11
54808;BME280;40708;50.364;7.550;2023-02-28T10:18:49;101699.91;;;4.19;89.77
54808;BME280;40708;50.364;7.550;2023-02-28T10:21:21;101694.78;;;4.22;88.68
54808;BME280;40708;50.364;7.550;2023-02-28T10:23:49;101676.69;;;4.68;85.01
54808;BME280;40708;50.364;7.550;2023-02-28T10:26:17;101682.53;;;4.61;81.65
54808;BME280;40708;50.364;7.550;2023-02-28T10:28:43;101683.09;;;4.94;79.08
54808;BME280;40708;50.364;7.550;2023-02-28T10:31:17;101679.47;;;5.33;76.96
54808;BME280;40708;50.364;7.550;2023-02-28T10:33:43;101671.78;;;5.17;75.36
54808;BME280;40708;50.364;7.550;2023-02-28T10:36:14;101682.88;;;5.30;74.99
54808;BME280;40708;50.364;7.550;2023-02-28T10:38:40;101673.41;;;5.13;77.54
54808;BME280;40708;50.364;7.550;2023-02-28T10:41:10;101677.25;;;5.01;76.36
54808;BME280;40708;50.364;7.550;2023-02-28T10:43:37;101676.09;;;5.15;75.30
54808;BME280;40708;50.364;7.550;2023-02-28T10:48:44;101669.19;;;6.04;70.91
54808;BME280;40708;50.364;7.550;2023-02-28T10:51:12;101666.94;;;6.15;66.55
54808;BME280;40708;50.364;7.550;2023-02-28T10:53:58;101680.44;;;6.22;64.77
54808;BME280;40708;50.364;7.550;2023-02-28T10:56:24;101670.38;;;6.12;61.00
54808;BME280;40708;50.364;7.550;2023-02-28T10:59:00;101672.25;;;6.62;59.40
54808;BME280;40708;50.364;7.550;2023-02-28T11:01:42;101676.91;;;6.45;57.65
54808;BME280;40708;50.364;7.550;2023-02-28T11:04:34;101663.88;;;6.03;58.95
54808;BME280;40708;50.364;7.550;2023-02-28T11:09:40;101664.66;;;5.57;60.28
54808;BME280;40708;50.364;7.550;2023-02-28T11:12:10;101682.66;;;5.47;63.42
54808;BME280;40708;50.364;7.550;2023-02-28T11:14:49;101670.63;;;4.90;65.92
54808;BME280;40708;50.364;7.550;2023-02-28T11:17:21;101659.81;;;5.03;70.59
54808;BME280;40708;50.364;7.550;2023-02-28T11:19:51;101666.09;;;4.86;71.36
54808;BME280;40708;50.364;7.550;2023-02-28T11:22:21;101668.81;;;4.68;73.08
54808;BME280;40708;50.364;7.550;2023-02-28T11:24:52;101665.41;;;4.50;73.98
54808;BME280;40708;50.364;7.550;2023-02-28T11:29:58;101671.44;;;4.28;77.47
54808;BME280;40708;50.364;7.550;2023-02-28T11:32:26;101665.22;;;4.26;78.63
54808;BME280;40708;50.364;7.550;2023-02-28T11:37:34;101673.72;;;4.20;79.71
54808;BME280;40708;50.364;7.550;2023-02-28T11:40:00;101665.56;;;4.14;81.48
54808;BME280;40708;50.364;7.550;2023-02-28T11:42:52;101670.19;;;4.01;79.50
54808;BME280;40708;50.364;7.550;2023-02-28T11:50:51;101669.13;;;4.36;76.14
54808;BME280;40708;50.364;7.550;2023-02-28T11:56:26;101647.91;;;4.50;73.74
54808;BME280;40708;50.364;7.550;2023-02-28T12:04:52;101647.38;;;4.99;71.60
54808;BME280;40708;50.364;7.550;2023-02-28T12:07:31;101640.06;;;4.92;69.91
54808;BME280;40708;50.364;7.550;2023-02-28T12:10:20;101642.53;;;5.09;68.56
54808;BME280;40708;50.364;7.550;2023-02-28T12:12:55;101635.22;;;5.23;66.71
54808;BME280;40708;50.364;7.550;2023-02-28T12:18:47;101635.25;;;5.02;64.33
54808;BME280;40708;50.364;7.550;2023-02-28T12:21:37;101640.06;;;4.92;64.22
54808;BME280;40708;50.364;7.550;2023-02-28T12:27:13;101635.59;;;5.32;64.14
54808;BME280;40708;50.364;7.550;2023-02-28T12:29:50;101631.13;;;5.29;62.65
54808;BME280;40708;50.364;7.550;2023-02-28T12:32:35;101628.66;;;5.34;63.25
54808;BME280;40708;50.364;7.550;2023-02-28T12:35:11;101626.28;;;5.62;63.97
54808;BME280;40708;50.364;7.550;2023-02-28T12:38:02;101625.56;;;5.66;60.97
54808;BME280;40708;50.364;7.550;2023-02-28T12:40:42;101617.94;;;5.74;61.24
54808;BME280;40708;50.364;7.550;2023-02-28T12:43:10;101614.13;;;5.88;61.62
54808;BME280;40708;50.364;7.550;2023-02-28T12:45:53;101618.97;;;5.99;58.65
54808;BME280;40708;50.364;7.550;2023-02-28T12:48:29;101614.06;;;6.09;58.04
54808;BME280;40708;50.364;7.550;2023-02-28T12:50:57;101624.25;;;5.99;58.73
54808;BME280;40708;50.364;7.550;2023-02-28T12:56:30;101612.13;;;6.28;60.46
54808;BME280;40708;50.364;7.550;2023-02-28T12:59:05;101607.03;;;6.58;59.21
54808;BME280;40708;50.364;7.550;2023-02-28T13:01:51;101604.06;;;6.24;58.20
54808;BME280;40708;50.364;7.550;2023-02-28T13:04:33;101608.59;;;6.28;58.85
54808;BME280;40708;50.364;7.550;2023-02-28T13:10:00;101602.56;;;6.30;58.16
54808;BME280;40708;50.364;7.550;2023-02-28T13:12:27;101593.53;;;6.24;58.92
54808;BME280;40708;50.364;7.550;2023-02-28T13:15:16;101604.38;;;6.56;57.86
54808;BME280;40708;50.364;7.550;2023-02-28T13:17:48;101600.91;;;6.57;56.09
54808;BME280;40708;50.364;7.550;2023-02-28T13:20:23;101601.63;;;6.53;55.93
54808;BME280;40708;50.364;7.550;2023-02-28T13:22:51;101606.38;;;6.38;56.66
54808;BME280;40708;50.364;7.550;2023-02-28T13:27:58;101606.09;;;6.56;56.82
54808;BME280;40708;50.364;7.550;2023-02-28T13:33:26;101591.03;;;6.52;58.02
54808;BME280;40708;50.364;7.550;2023-02-28T13:38:45;101595.97;;;6.43;57.07
54808;BME280;40708;50.364;7.550;2023-02-28T13:46:32;101589.94;;;6.22;57.78
54808;BME280;40708;50.364;7.550;2023-02-28T14:05:33;101578.72;;;6.04;63.25
54808;BME280;40708;50.364;7.550;2023-02-28T14:08:24;101583.94;;;6.02;62.89
54808;BME280;40708;50.364;7.550;2023-02-28T14:10:52;101590.91;;;5.78;62.86
54808;BME280;40708;50.364;7.550;2023-02-28T14:16:03;101582.53;;;5.88;65.32
54808;BME280;40708;50.364;7.550;2023-02-28T14:18:32;101578.16;;;5.88;65.21
54808;BME280;40708;50.364;7.550;2023-02-28T14:21:08;101572.78;;;5.85;65.93
54808;BME280;40708;50.364;7.550;2023-02-28T14:23:38;101573.69;;;5.86;67.07
54808;BME280;40708;50.364;7.550;2023-02-28T14:26:16;101573.19;;;5.74;65.19
54808;BME280;40708;50.364;7.550;2023-02-28T14:29:01;101566.97;;;5.94;67.51
54808;BME280;40708;50.364;7.550;2023-02-28T14:31:39;101565.78;;;6.10;67.94
54808;BME280;40708;50.364;7.550;2023-02-28T14:37:28;101566.81;;;6.15;67.42
54808;BME280;40708;50.364;7.550;2023-02-28T14:39:57;101565.47;;;6.01;66.79
54808;BME280;40708;50.364;7.550;2023-02-28T14:42:56;101565.22;;;5.94;68.72
54808;BME280;40708;50.364;7.550;2023-02-28T14:45:23;101566.69;;;5.86;70.11
54808;BME280;40708;50.364;7.550;2023-02-28T14:47:51;101561.84;;;5.98;72.72
54808;BME280;40708;50.364;7.550;2023-02-28T14:50:22;101562.41;;;5.90;74.21